createdAt,value
2022-10-11T00:01:49.763Z,96.10
2022-10-11T00:04:19.128Z,96.00
2022-10-11T00:06:51.275Z,95.90
2022-10-11T00:09:20.976Z,96.00
2022-10-11T00:11:47.821Z,96.00
2022-10-11T00:14:25.147Z,96.20
2022-10-11T00:17:00.526Z,96.50
2022-10-11T00:19:38.723Z,96.60
2022-10-11T00:22:17.922Z,96.50
2022-10-11T00:24:48.357Z,96.40
2022-10-11T00:27:31.939Z,96.20
2022-10-11T00:30:11.314Z,96.10
2022-10-11T00:32:44.172Z,96.20
2022-10-11T00:35:18.252Z,96.20
2022-10-11T00:37:44.927Z,96.30
2022-10-11T00:40:24.120Z,96.60
2022-10-11T00:49:40.671Z,96.60
2022-10-11T00:52:49.632Z,96.70
2022-10-11T00:55:20.538Z,96.80
2022-10-11T00:57:57.345Z,96.80
2022-10-11T01:00:29.718Z,96.90
2022-10-11T01:03:06.079Z,96.80
2022-10-11T01:05:45.525Z,96.80
2022-10-11T01:08:28.025Z,96.80
2022-10-11T01:10:58.452Z,96.80
2022-10-11T01:13:58.113Z,96.70
2022-10-11T01:17:04.582Z,96.60
2022-10-11T01:40:37.941Z,96.70
2022-10-11T01:49:19.377Z,97.00
2022-10-11T01:52:02.320Z,97.10
2022-10-11T02:01:25.131Z,96.90
2022-10-11T02:04:04.715Z,97.00
2022-10-11T02:15:43.414Z,97.20
2022-10-11T02:22:31.911Z,97.50
2022-10-11T02:25:05.917Z,97.40
2022-10-11T02:28:14.444Z,97.40
2022-10-11T02:30:44.034Z,97.30
2022-10-11T02:33:23.566Z,97.50
2022-10-11T02:36:02.553Z,97.50
2022-10-11T02:38:55.834Z,97.60
2022-10-11T02:41:36.556Z,97.60
2022-10-11T02:44:27.866Z,97.50
2022-10-11T02:47:05.926Z,97.50
2022-10-11T02:49:41.902Z,97.40
2022-10-11T02:52:12.344Z,97.50
2022-10-11T02:54:43.938Z,97.60
2022-10-11T02:57:10.584Z,97.70
2022-10-11T02:59:46.131Z,97.70
2022-10-11T03:02:15.665Z,97.50
2022-10-11T03:04:48.289Z,97.50
2022-10-11T03:07:24.064Z,97.50
2022-10-11T03:10:08.801Z,97.70
2022-10-11T03:12:50.888Z,97.80
2022-10-11T03:15:20.350Z,98.00
2022-10-11T03:18:05.311Z,97.80
2022-10-11T03:20:40.552Z,97.80
2022-10-11T03:23:18.363Z,97.70
2022-10-11T03:26:05.068Z,97.80
2022-10-11T03:28:38.382Z,97.90
2022-10-11T03:31:10.834Z,98.00
2022-10-11T03:33:44.966Z,98.00
2022-10-11T03:36:29.248Z,98.00
2022-10-11T03:39:01.945Z,97.80
2022-10-11T03:41:34.727Z,97.70
2022-10-11T03:44:04.078Z,97.60
2022-10-11T03:46:42.479Z,97.70
2022-10-11T03:49:12.220Z,97.90
2022-10-11T03:51:44.125Z,97.90
2022-10-11T03:54:24.778Z,97.70
2022-10-11T03:57:31.034Z,97.70
2022-10-11T04:00:35.685Z,97.70
2022-10-11T04:03:09.001Z,97.50
2022-10-11T04:05:35.800Z,97.50
2022-10-11T04:56:26.435Z,98.40
2022-10-11T04:59:01.425Z,98.40
2022-10-11T05:04:47.879Z,98.50
2022-10-11T05:10:35.248Z,98.50
2022-10-11T05:14:52.144Z,98.40
2022-10-11T05:20:09.578Z,98.90
2022-10-11T05:22:43.054Z,99.10
2022-10-11T05:25:17.339Z,99.30
2022-10-11T05:27:53.379Z,99.60
2022-10-11T05:30:41.833Z,99.90
2022-10-11T05:33:24.440Z,99.90
2022-10-11T05:36:03.274Z,99.90
2022-10-11T05:45:12.255Z,99.50
2022-10-11T05:47:52.664Z,99.30
2022-10-11T05:50:28.685Z,99.20
2022-10-11T05:53:13.883Z,99.10
2022-10-11T05:55:53.725Z,99.20
2022-10-11T06:05:37.985Z,99.00
2022-10-11T12:28:29.760Z,66.70
2022-10-11T12:31:06.612Z,66.70
2022-10-11T13:23:38.424Z,62.20
2022-10-11T13:26:10.015Z,62.20
2022-10-11T13:28:42.796Z,62.30
2022-10-11T13:34:22.357Z,64.00
2022-10-11T13:40:17.510Z,65.10
2022-10-11T13:42:45.071Z,65.00
2022-10-11T13:45:19.212Z,66.20
2022-10-11T13:48:31.955Z,66.30
2022-10-11T13:51:06.491Z,67.20
2022-10-11T13:54:11.718Z,67.30
2022-10-11T14:00:38.503Z,66.30
2022-10-11T14:03:17.434Z,66.10
2022-10-11T14:06:19.048Z,67.50
2022-10-11T14:11:44.981Z,67.90
2022-10-11T14:14:51.981Z,69.10
2022-10-11T14:21:04.675Z,66.80
2022-10-11T14:23:31.441Z,61.90
2022-10-11T14:30:20.310Z,64.50
2022-10-11T14:33:01.907Z,63.10
2022-10-11T15:04:04.801Z,66.60
2022-10-11T15:06:35.982Z,66.60
2022-10-11T15:09:04.262Z,67.80
2022-10-11T15:11:43.127Z,68.00
2022-10-11T15:22:27.821Z,67.00
2022-10-11T15:24:54.597Z,66.40
2022-10-11T15:50:36.933Z,67.10
2022-10-11T15:53:04.982Z,68.30
2022-10-11T15:56:06.743Z,68.70
2022-10-11T15:59:15.548Z,69.00
2022-10-11T16:08:18.792Z,69.50
2022-10-11T16:10:47.454Z,69.70
2022-10-11T16:13:16.777Z,69.90
2022-10-11T16:15:50.132Z,70.20
2022-10-11T16:18:22.975Z,70.30
2022-10-11T16:20:53.217Z,70.60
2022-10-11T16:23:21.014Z,71.00
2022-10-11T16:25:57.431Z,71.20
2022-10-11T16:31:26.500Z,71.50
2022-10-11T16:40:26.345Z,71.70
2022-10-11T16:40:27.579Z,72.20
2022-10-11T16:42:56.531Z,72.30
2022-10-11T16:45:23.362Z,72.60
2022-10-11T16:47:57.519Z,72.80
2022-10-11T16:50:24.721Z,73.20
2022-10-11T16:52:59.100Z,74.20
2022-10-11T16:55:25.929Z,74.90
2022-10-11T16:57:52.726Z,75.50
2022-10-11T17:00:22.666Z,76.30
2022-10-11T17:02:51.976Z,76.60
2022-10-11T17:05:24.589Z,76.70
2022-10-11T17:07:53.583Z,77.40
2022-10-11T17:10:28.652Z,78.10
2022-10-11T17:13:01.399Z,78.50
2022-10-11T17:15:28.285Z,78.80
2022-10-11T17:17:55.793Z,79.20
2022-10-11T17:20:31.906Z,79.50
2022-10-11T17:22:59.873Z,80.00
2022-10-11T17:25:32.129Z,80.30
2022-10-11T17:28:04.084Z,80.90
2022-10-11T17:30:42.707Z,81.20
2022-10-11T17:33:09.411Z,81.60
2022-10-11T17:35:36.338Z,82.00
2022-10-11T17:38:06.580Z,82.40
2022-10-11T17:40:38.700Z,82.70
2022-10-11T17:43:06.092Z,82.60
2022-10-11T17:45:53.624Z,82.00
2022-10-11T17:48:20.250Z,82.00
2022-10-11T17:50:56.020Z,82.70
2022-10-11T17:53:26.078Z,83.00
2022-10-11T17:55:52.725Z,83.40
2022-10-11T18:01:06.488Z,83.90
2022-10-11T18:03:33.697Z,83.90
2022-10-11T18:06:07.913Z,83.80
2022-10-11T18:08:39.905Z,83.80
2022-10-11T18:11:27.680Z,84.30
2022-10-11T18:13:54.365Z,84.60
2022-10-11T18:16:30.185Z,84.80
2022-10-11T18:18:57.763Z,85.10
2022-10-11T18:21:33.656Z,85.40
2022-10-11T18:24:18.990Z,85.60
2022-10-11T18:26:47.226Z,85.80
2022-10-11T18:29:14.102Z,86.10
2022-10-11T18:31:49.931Z,86.20
2022-10-11T18:34:16.698Z,86.40
2022-10-11T18:36:43.451Z,86.50
2022-10-11T18:39:13.285Z,86.50
2022-10-11T18:41:40.851Z,86.70
2022-10-11T18:44:08.918Z,86.70
2022-10-11T18:46:36.039Z,86.80
2022-10-11T18:49:03.373Z,87.00
2022-10-11T19:08:09.092Z,88.30
2022-10-11T19:10:37.003Z,88.30
2022-10-11T19:16:21.451Z,88.40
2022-10-11T19:18:51.896Z,88.50
2022-10-11T19:21:19.380Z,88.70
2022-10-11T19:23:47.687Z,89.10
2022-10-11T19:26:23.209Z,89.20
2022-10-11T19:28:56.025Z,89.40
2022-10-11T19:31:26.552Z,89.60
2022-10-11T19:42:02.268Z,89.80
2022-10-11T19:47:21.474Z,90.20
2022-10-11T19:49:48.202Z,90.40
2022-10-11T19:52:14.983Z,90.70
2022-10-11T19:54:42.320Z,90.80
2022-10-11T19:59:47.525Z,91.00
2022-10-11T20:02:14.821Z,91.10
2022-10-11T20:04:52.503Z,91.20
2022-10-11T20:10:26.542Z,91.20
2022-10-11T20:24:18.726Z,91.10
2022-10-11T20:26:46.027Z,91.20
2022-10-11T20:29:24.718Z,91.20
2022-10-11T20:31:53.522Z,91.20
2022-10-11T20:34:20.232Z,91.30
2022-10-11T20:36:58.799Z,91.30
2022-10-11T20:46:44.661Z,92.30
2022-10-11T20:49:21.153Z,92.50
2022-10-11T20:52:09.524Z,92.60
2022-10-11T20:55:14.573Z,92.70
2022-10-11T20:57:47.290Z,92.80
2022-10-11T21:03:25.877Z,92.90
2022-10-11T21:05:59.281Z,92.90
2022-10-11T21:08:33.038Z,92.90
2022-10-11T21:11:06.852Z,93.10
2022-10-11T21:13:42.317Z,93.10
2022-10-11T21:16:16.413Z,93.00
2022-10-11T21:18:54.072Z,93.00
2022-10-11T21:21:29.012Z,93.20
2022-10-11T21:24:16.265Z,93.10
2022-10-11T21:26:45.994Z,92.90
2022-10-11T21:29:25.208Z,92.80
2022-10-11T21:32:10.824Z,92.70
2022-10-11T21:34:40.201Z,92.60
2022-10-11T21:37:09.038Z,92.40
2022-10-11T21:39:37.943Z,92.40
2022-10-11T21:42:09.947Z,92.40
2022-10-11T21:44:49.348Z,92.40
2022-10-11T21:47:16.052Z,92.50
2022-10-11T21:50:33.407Z,92.50
2022-10-11T21:53:00.228Z,92.30
2022-10-11T21:55:35.428Z,92.40
2022-10-11T21:58:18.233Z,92.70
2022-10-11T22:00:50.699Z,93.00
2022-10-11T22:03:17.938Z,93.00
2022-10-11T22:05:46.048Z,93.00
2022-10-11T22:08:22.607Z,93.10
2022-10-11T22:10:57.734Z,93.20
2022-10-11T22:13:30.099Z,93.20
2022-10-11T22:16:06.776Z,93.20
2022-10-11T22:18:40.331Z,93.10
2022-10-11T22:21:21.163Z,93.10
2022-10-11T22:23:56.408Z,93.20
2022-10-11T22:26:28.693Z,93.40
2022-10-11T22:28:58.636Z,94.10
2022-10-11T22:31:29.610Z,93.60
2022-10-11T22:34:00.803Z,93.80
2022-10-11T22:36:29.679Z,93.80
2022-10-11T22:39:08.370Z,93.60
2022-10-11T22:41:41.206Z,93.50
2022-10-11T22:44:17.369Z,93.50
2022-10-11T22:49:36.249Z,93.50
2022-10-11T22:52:05.822Z,93.70
2022-10-11T22:54:37.125Z,93.90
2022-10-11T22:57:09.996Z,94.10
2022-10-11T22:59:48.804Z,94.20
2022-10-11T23:02:25.899Z,94.10
2022-10-11T23:04:55.024Z,94.00
2022-10-11T23:07:22.213Z,94.30
2022-10-11T23:09:49.125Z,94.40
2022-10-11T23:12:18.903Z,94.40
2022-10-11T23:14:51.076Z,94.40
2022-10-11T23:17:23.591Z,94.40
2022-10-11T23:19:50.531Z,94.50
2022-10-11T23:22:26.771Z,94.40
2022-10-11T23:24:56.492Z,94.30
2022-10-11T23:27:28.120Z,94.10
2022-10-11T23:30:08.394Z,94.00
2022-10-11T23:32:36.794Z,93.90
2022-10-11T23:35:03.922Z,93.80
2022-10-11T23:37:33.889Z,93.90
2022-10-11T23:40:04.754Z,94.00
2022-10-11T23:42:34.788Z,94.00
2022-10-11T23:48:04.456Z,94.10
2022-10-11T23:50:37.920Z,94.40
2022-10-11T23:53:04.620Z,94.70
2022-10-11T23:55:31.353Z,94.70
2022-10-11T23:58:00.981Z,94.60
